sensor_id;sensor_type;location;lat;lon;timestamp;pressure;altitude;pressure_sealevel;temperature;humidity
41866;BME280;27539;43.222;27.558;2022-09-01T00:00:23;100208.72;;;21.30;100.00
41866;BME280;27539;43.222;27.558;2022-09-01T00:02:55;100211.84;;;21.20;100.00
41866;BME280;27539;43.222;27.558;2022-09-01T00:05:21;100211.78;;;21.11;100.00
41866;BME280;27539;43.222;27.558;2022-09-01T00:07:46;100227.28;;;21.14;100.00
41866;BME280;27539;43.222;27.558;2022-09-01T00:10:12;100230.91;;;21.06;100.00
41866;BME280;27539;43.222;27.558;2022-09-01T00:12:37;100228.28;;;21.09;100.00
41866;BME280;27539;43.222;27.558;2022-09-01T00:15:04;100227.13;;;21.10;100.00
41866;BME280;27539;43.222;27.558;2022-09-01T00:17:29;100220.34;;;21.20;100.00
41866;BME280;27539;43.222;27.558;2022-09-01T00:19:55;100222.19;;;21.25;100.00
41866;BME280;27539;43.222;27.558;2022-09-01T00:22:20;100231.44;;;21.17;100.00
41866;BME280;27539;43.222;27.558;2022-09-01T00:24:46;100229.66;;;21.21;100.00
41866;BME280;27539;43.222;27.558;2022-09-01T00:27:11;100221.63;;;21.14;100.00
41866;BME280;27539;43.222;27.558;2022-09-01T00:29:37;100226.47;;;21.13;100.00
41866;BME280;27539;43.222;27.558;2022-09-01T00:32:02;100226.09;;;21.06;100.00
41866;BME280;27539;43.222;27.558;2022-09-01T00:34:28;100223.47;;;21.10;100.00
41866;BME280;27539;43.222;27.558;2022-09-01T00:36:53;100220.63;;;21.10;100.00
41866;BME280;27539;43.222;27.558;2022-09-01T00:39:19;100229.94;;;21.10;100.00
41866;BME280;27539;43.222;27.558;2022-09-01T00:41:44;100222.78;;;21.04;100.00
41866;BME280;27539;43.222;27.558;2022-09-01T00:44:13;100214.59;;;21.03;100.00
41866;BME280;27539;43.222;27.558;2022-09-01T00:46:43;100225.94;;;21.11;100.00
41866;BME280;27539;43.222;27.558;2022-09-01T00:51:41;100228.78;;;21.11;100.00
41866;BME280;27539;43.222;27.558;2022-09-01T00:54:10;100228.09;;;21.06;100.00
41866;BME280;27539;43.222;27.558;2022-09-01T00:56:37;100225.41;;;21.01;100.00
41866;BME280;27539;43.222;27.558;2022-09-01T00:59:04;100223.91;;;21.03;100.00
41866;BME280;27539;43.222;27.558;2022-09-01T01:01:31;100218.88;;;20.91;100.00
41866;BME280;27539;43.222;27.558;2022-09-01T01:03:59;100222.84;;;20.82;100.00
41866;BME280;27539;43.222;27.558;2022-09-01T01:06:26;100222.03;;;20.90;100.00
41866;BME280;27539;43.222;27.558;2022-09-01T01:08:54;100219.00;;;20.86;100.00
41866;BME280;27539;43.222;27.558;2022-09-01T01:11:25;100211.69;;;20.85;100.00
41866;BME280;27539;43.222;27.558;2022-09-01T01:14:02;100217.88;;;20.87;100.00
41866;BME280;27539;43.222;27.558;2022-09-01T01:16:39;100210.50;;;20.78;100.00
41866;BME280;27539;43.222;27.558;2022-09-01T01:19:09;100218.59;;;20.70;100.00
41866;BME280;27539;43.222;27.558;2022-09-01T01:21:56;100218.88;;;20.60;100.00
41866;BME280;27539;43.222;27.558;2022-09-01T01:24:39;100215.88;;;20.57;100.00
41866;BME280;27539;43.222;27.558;2022-09-01T01:27:07;100214.63;;;20.49;100.00
41866;BME280;27539;43.222;27.558;2022-09-01T01:29:33;100223.84;;;20.41;100.00
41866;BME280;27539;43.222;27.558;2022-09-01T01:32:02;100220.34;;;20.35;100.00
41866;BME280;27539;43.222;27.558;2022-09-01T01:34:33;100222.34;;;20.35;100.00
41866;BME280;27539;43.222;27.558;2022-09-01T01:36:58;100227.03;;;20.39;100.00
41866;BME280;27539;43.222;27.558;2022-09-01T01:39:25;100220.34;;;20.35;100.00
41866;BME280;27539;43.222;27.558;2022-09-01T01:41:51;100219.38;;;20.40;100.00
41866;BME280;27539;43.222;27.558;2022-09-01T01:44:18;100218.91;;;20.46;100.00
41866;BME280;27539;43.222;27.558;2022-09-01T01:46:46;100213.78;;;20.48;100.00
41866;BME280;27539;43.222;27.558;2022-09-01T01:49:12;100228.25;;;20.47;100.00
41866;BME280;27539;43.222;27.558;2022-09-01T01:51:43;100223.28;;;20.53;100.00
41866;BME280;27539;43.222;27.558;2022-09-01T01:54:09;100228.16;;;20.38;100.00
41866;BME280;27539;43.222;27.558;2022-09-01T01:56:34;100233.81;;;20.38;100.00
41866;BME280;27539;43.222;27.558;2022-09-01T01:59:06;100230.69;;;20.40;100.00
41866;BME280;27539;43.222;27.558;2022-09-01T02:01:31;100232.59;;;20.31;100.00
41866;BME280;27539;43.222;27.558;2022-09-01T02:03:58;100227.63;;;20.36;100.00
41866;BME280;27539;43.222;27.558;2022-09-01T02:06:24;100216.88;;;20.38;100.00
41866;BME280;27539;43.222;27.558;2022-09-01T02:08:53;100219.13;;;20.27;100.00
41866;BME280;27539;43.222;27.558;2022-09-01T02:11:22;100216.28;;;20.27;100.00
41866;BME280;27539;43.222;27.558;2022-09-01T02:13:50;100223.34;;;20.16;100.00
41866;BME280;27539;43.222;27.558;2022-09-01T02:16:20;100219.78;;;20.24;100.00
41866;BME280;27539;43.222;27.558;2022-09-01T02:18:47;100224.19;;;20.17;100.00
41866;BME280;27539;43.222;27.558;2022-09-01T02:21:13;100225.34;;;20.16;100.00
41866;BME280;27539;43.222;27.558;2022-09-01T02:23:44;100219.09;;;20.05;100.00
41866;BME280;27539;43.222;27.558;2022-09-01T02:26:09;100221.28;;;20.08;100.00
41866;BME280;27539;43.222;27.558;2022-09-01T02:28:36;100223.28;;;20.07;100.00
41866;BME280;27539;43.222;27.558;2022-09-01T02:31:04;100215.06;;;19.97;100.00
41866;BME280;27539;43.222;27.558;2022-09-01T02:33:33;100217.28;;;19.87;100.00
41866;BME280;27539;43.222;27.558;2022-09-01T02:36:00;100211.19;;;19.93;100.00
41866;BME280;27539;43.222;27.558;2022-09-01T02:38:26;100211.31;;;19.88;100.00
41866;BME280;27539;43.222;27.558;2022-09-01T02:40:53;100213.19;;;19.93;100.00
41866;BME280;27539;43.222;27.558;2022-09-01T02:43:19;100212.75;;;19.99;100.00
41866;BME280;27539;43.222;27.558;2022-09-01T02:45:46;100205.69;;;20.11;100.00
41866;BME280;27539;43.222;27.558;2022-09-01T02:48:11;100205.09;;;20.00;100.00
41866;BME280;27539;43.222;27.558;2022-09-01T02:50:37;100205.75;;;19.97;100.00
41866;BME280;27539;43.222;27.558;2022-09-01T02:53:02;100207.28;;;20.03;100.00
41866;BME280;27539;43.222;27.558;2022-09-01T02:55:31;100207.22;;;19.94;100.00
41866;BME280;27539;43.222;27.558;2022-09-01T02:57:56;100204.81;;;20.01;100.00
41866;BME280;27539;43.222;27.558;2022-09-01T03:00:22;100204.47;;;20.03;100.00
41866;BME280;27539;43.222;27.558;2022-09-01T03:02:53;100195.34;;;20.06;100.00
41866;BME280;27539;43.222;27.558;2022-09-01T03:05:21;100201.34;;;20.04;100.00
41866;BME280;27539;43.222;27.558;2022-09-01T03:07:50;100196.22;;;20.06;100.00
41866;BME280;27539;43.222;27.558;2022-09-01T03:10:19;100200.16;;;20.05;100.00
41866;BME280;27539;43.222;27.558;2022-09-01T03:12:45;100201.13;;;20.01;100.00
41866;BME280;27539;43.222;27.558;2022-09-01T03:15:11;100200.81;;;20.02;100.00
41866;BME280;27539;43.222;27.558;2022-09-01T03:17:37;100193.81;;;20.00;100.00
41866;BME280;27539;43.222;27.558;2022-09-01T03:20:02;100191.94;;;19.95;100.00
41866;BME280;27539;43.222;27.558;2022-09-01T03:22:28;100192.00;;;19.81;100.00
41866;BME280;27539;43.222;27.558;2022-09-01T03:24:53;100189.72;;;19.70;100.00
41866;BME280;27539;43.222;27.558;2022-09-01T03:27:20;100193.25;;;19.75;100.00
41866;BME280;27539;43.222;27.558;2022-09-01T03:29:45;100200.97;;;19.83;100.00
41866;BME280;27539;43.222;27.558;2022-09-01T03:32:11;100199.63;;;19.81;100.00
41866;BME280;27539;43.222;27.558;2022-09-01T03:34:36;100202.53;;;19.90;100.00
41866;BME280;27539;43.222;27.558;2022-09-01T03:37:03;100200.47;;;19.81;100.00
41866;BME280;27539;43.222;27.558;2022-09-01T03:39:31;100198.16;;;19.83;100.00
41866;BME280;27539;43.222;27.558;2022-09-01T03:41:57;100196.63;;;19.77;100.00
41866;BME280;27539;43.222;27.558;2022-09-01T03:44:24;100198.72;;;19.72;100.00
41866;BME280;27539;43.222;27.558;2022-09-01T03:46:49;100200.91;;;19.75;100.00
41866;BME280;27539;43.222;27.558;2022-09-01T03:49:15;100206.41;;;19.66;100.00
41866;BME280;27539;43.222;27.558;2022-09-01T03:51:47;100208.22;;;19.62;100.00
41866;BME280;27539;43.222;27.558;2022-09-01T03:54:12;100209.06;;;19.76;100.00
41866;BME280;27539;43.222;27.558;2022-09-01T03:56:38;100202.25;;;19.77;100.00
41866;BME280;27539;43.222;27.558;2022-09-01T03:59:06;100201.22;;;19.73;100.00
41866;BME280;27539;43.222;27.558;2022-09-01T04:01:31;100204.69;;;19.70;100.00
41866;BME280;27539;43.222;27.558;2022-09-01T04:03:58;100204.16;;;19.68;100.00
41866;BME280;27539;43.222;27.558;2022-09-01T04:06:25;100209.16;;;19.71;100.00
41866;BME280;27539;43.222;27.558;2022-09-01T04:08:50;100218.34;;;19.77;100.00
41866;BME280;27539;43.222;27.558;2022-09-01T04:11:21;100214.06;;;19.79;100.00
41866;BME280;27539;43.222;27.558;2022-09-01T04:13:48;100216.06;;;19.79;100.00
41866;BME280;27539;43.222;27.558;2022-09-01T04:16:21;100217.28;;;19.87;100.00
41866;BME280;27539;43.222;27.558;2022-09-01T04:19:06;100223.75;;;19.87;100.00
41866;BME280;27539;43.222;27.558;2022-09-01T04:21:40;100228.47;;;19.92;100.00
41866;BME280;27539;43.222;27.558;2022-09-01T04:24:07;100224.88;;;20.00;100.00
41866;BME280;27539;43.222;27.558;2022-09-01T04:26:34;100226.03;;;19.99;100.00
41866;BME280;27539;43.222;27.558;2022-09-01T04:29:00;100229.34;;;20.01;100.00
41866;BME280;27539;43.222;27.558;2022-09-01T04:31:25;100227.81;;;19.95;100.00
41866;BME280;27539;43.222;27.558;2022-09-01T04:33:51;100226.50;;;20.15;100.00
41866;BME280;27539;43.222;27.558;2022-09-01T04:38:56;100215.38;;;20.18;100.00
41866;BME280;27539;43.222;27.558;2022-09-01T04:41:23;100212.03;;;20.16;100.00
41866;BME280;27539;43.222;27.558;2022-09-01T04:43:50;100215.78;;;20.25;100.00
41866;BME280;27539;43.222;27.558;2022-09-01T04:46:16;100202.56;;;20.35;100.00
41866;BME280;27539;43.222;27.558;2022-09-01T04:48:42;100205.13;;;20.45;100.00
41866;BME280;27539;43.222;27.558;2022-09-01T04:51:09;100204.47;;;20.48;100.00
41866;BME280;27539;43.222;27.558;2022-09-01T04:53:36;100205.25;;;20.62;100.00
41866;BME280;27539;43.222;27.558;2022-09-01T04:56:02;100198.66;;;20.76;100.00
41866;BME280;27539;43.222;27.558;2022-09-01T04:58:28;100200.94;;;20.96;100.00
41866;BME280;27539;43.222;27.558;2022-09-01T05:00:54;100198.31;;;21.08;100.00
41866;BME280;27539;43.222;27.558;2022-09-01T05:03:20;100202.03;;;21.18;100.00
41866;BME280;27539;43.222;27.558;2022-09-01T05:05:48;100201.72;;;21.28;100.00
41866;BME280;27539;43.222;27.558;2022-09-01T05:08:15;100202.94;;;21.44;100.00
41866;BME280;27539;43.222;27.558;2022-09-01T05:10:43;100212.16;;;21.58;100.00
41866;BME280;27539;43.222;27.558;2022-09-01T05:13:09;100218.47;;;21.64;100.00
41866;BME280;27539;43.222;27.558;2022-09-01T05:15:39;100214.66;;;21.69;100.00
41866;BME280;27539;43.222;27.558;2022-09-01T05:18:11;100208.84;;;21.74;100.00
41866;BME280;27539;43.222;27.558;2022-09-01T05:20:37;100210.03;;;21.90;100.00
41866;BME280;27539;43.222;27.558;2022-09-01T05:23:06;100207.72;;;21.92;100.00
41866;BME280;27539;43.222;27.558;2022-09-01T05:25:36;100217.03;;;21.93;100.00
41866;BME280;27539;43.222;27.558;2022-09-01T05:28:02;100211.19;;;21.98;100.00
41866;BME280;27539;43.222;27.558;2022-09-01T05:30:28;100218.38;;;22.13;100.00
41866;BME280;27539;43.222;27.558;2022-09-01T05:32:53;100222.69;;;22.19;100.00
41866;BME280;27539;43.222;27.558;2022-09-01T05:35:19;100216.88;;;22.24;100.00
41866;BME280;27539;43.222;27.558;2022-09-01T05:37:44;100224.22;;;22.34;100.00
41866;BME280;27539;43.222;27.558;2022-09-01T05:40:10;100219.69;;;22.41;100.00
41866;BME280;27539;43.222;27.558;2022-09-01T05:42:41;100226.03;;;22.56;100.00
41866;BME280;27539;43.222;27.558;2022-09-01T05:45:06;100218.16;;;22.61;100.00
41866;BME280;27539;43.222;27.558;2022-09-01T05:47:32;100216.16;;;22.62;100.00
41866;BME280;27539;43.222;27.558;2022-09-01T05:50:01;100212.16;;;22.63;100.00
41866;BME280;27539;43.222;27.558;2022-09-01T05:52:27;100217.34;;;22.61;100.00
41866;BME280;27539;43.222;27.558;2022-09-01T05:54:55;100206.78;;;22.79;100.00
41866;BME280;27539;43.222;27.558;2022-09-01T05:57:24;100203.94;;;22.79;100.00
41866;BME280;27539;43.222;27.558;2022-09-01T05:59:49;100213.91;;;23.02;100.00
41866;BME280;27539;43.222;27.558;2022-09-01T06:02:18;100208.44;;;23.27;100.00
41866;BME280;27539;43.222;27.558;2022-09-01T06:04:45;100203.03;;;23.43;100.00
41866;BME280;27539;43.222;27.558;2022-09-01T06:07:11;100201.13;;;23.56;100.00
41866;BME280;27539;43.222;27.558;2022-09-01T06:09:41;100209.69;;;23.77;100.00
41866;BME280;27539;43.222;27.558;2022-09-01T06:12:07;100210.38;;;23.94;100.00
41866;BME280;27539;43.222;27.558;2022-09-01T06:14:41;100213.31;;;24.07;100.00
41866;BME280;27539;43.222;27.558;2022-09-01T06:17:06;100216.81;;;24.25;100.00
41866;BME280;27539;43.222;27.558;2022-09-01T06:19:34;100215.31;;;24.06;100.00
41866;BME280;27539;43.222;27.558;2022-09-01T06:21:59;100211.34;;;24.20;100.00
41866;BME280;27539;43.222;27.558;2022-09-01T06:24:25;100209.38;;;24.32;100.00
41866;BME280;27539;43.222;27.558;2022-09-01T06:26:52;100214.81;;;24.46;100.00
41866;BME280;27539;43.222;27.558;2022-09-01T06:29:18;100209.53;;;24.36;100.00
41866;BME280;27539;43.222;27.558;2022-09-01T06:31:45;100208.34;;;24.58;100.00
41866;BME280;27539;43.222;27.558;2022-09-01T06:34:11;100207.50;;;24.57;100.00
41866;BME280;27539;43.222;27.558;2022-09-01T06:36:42;100210.97;;;24.63;100.00
41866;BME280;27539;43.222;27.558;2022-09-01T06:39:09;100207.44;;;24.66;100.00
41866;BME280;27539;43.222;27.558;2022-09-01T06:41:43;100201.19;;;24.97;100.00
41866;BME280;27539;43.222;27.558;2022-09-01T06:44:12;100213.09;;;25.12;100.00
41866;BME280;27539;43.222;27.558;2022-09-01T06:46:38;100204.81;;;25.19;100.00
41866;BME280;27539;43.222;27.558;2022-09-01T06:49:03;100212.19;;;25.44;100.00
41866;BME280;27539;43.222;27.558;2022-09-01T06:51:29;100211.94;;;25.62;100.00
41866;BME280;27539;43.222;27.558;2022-09-01T06:53:55;100210.84;;;25.79;100.00
41866;BME280;27539;43.222;27.558;2022-09-01T06:56:23;100217.94;;;25.97;100.00
41866;BME280;27539;43.222;27.558;2022-09-01T06:58:51;100217.13;;;25.97;100.00
41866;BME280;27539;43.222;27.558;2022-09-01T07:01:17;100228.38;;;26.05;100.00
41866;BME280;27539;43.222;27.558;2022-09-01T07:03:44;100225.22;;;26.23;100.00
41866;BME280;27539;43.222;27.558;2022-09-01T07:06:11;100220.06;;;26.41;100.00
41866;BME280;27539;43.222;27.558;2022-09-01T07:08:39;100218.69;;;26.50;100.00
41866;BME280;27539;43.222;27.558;2022-09-01T07:11:15;100224.50;;;26.66;100.00
41866;BME280;27539;43.222;27.558;2022-09-01T07:13:41;100224.06;;;26.80;100.00
41866;BME280;27539;43.222;27.558;2022-09-01T07:16:15;100223.03;;;26.72;100.00
41866;BME280;27539;43.222;27.558;2022-09-01T07:18:42;100223.78;;;26.85;100.00
41866;BME280;27539;43.222;27.558;2022-09-01T07:21:07;100229.63;;;26.61;100.00
41866;BME280;27539;43.222;27.558;2022-09-01T07:23:33;100227.28;;;26.79;100.00
41866;BME280;27539;43.222;27.558;2022-09-01T07:25:58;100225.00;;;26.84;100.00
41866;BME280;27539;43.222;27.558;2022-09-01T07:28:24;100229.81;;;26.96;100.00
41866;BME280;27539;43.222;27.558;2022-09-01T07:30:54;100227.84;;;27.16;100.00
41866;BME280;27539;43.222;27.558;2022-09-01T07:33:20;100224.72;;;27.05;100.00
41866;BME280;27539;43.222;27.558;2022-09-01T07:35:49;100235.94;;;26.82;100.00
41866;BME280;27539;43.222;27.558;2022-09-01T07:38:17;100224.19;;;27.15;100.00
41866;BME280;27539;43.222;27.558;2022-09-01T07:40:43;100232.19;;;26.94;100.00
41866;BME280;27539;43.222;27.558;2022-09-01T07:43:20;100226.84;;;27.08;100.00
41866;BME280;27539;43.222;27.558;2022-09-01T07:45:47;100216.66;;;27.23;100.00
41866;BME280;27539;43.222;27.558;2022-09-01T07:48:13;100216.19;;;27.37;100.00
41866;BME280;27539;43.222;27.558;2022-09-01T07:50:42;100216.47;;;27.48;100.00
41866;BME280;27539;43.222;27.558;2022-09-01T07:53:12;100213.50;;;27.60;100.00
41866;BME280;27539;43.222;27.558;2022-09-01T07:55:39;100206.53;;;27.42;100.00
41866;BME280;27539;43.222;27.558;2022-09-01T07:58:07;100209.88;;;27.79;100.00
41866;BME280;27539;43.222;27.558;2022-09-01T08:00:33;100207.00;;;27.79;100.00
41866;BME280;27539;43.222;27.558;2022-09-01T08:02:58;100205.41;;;27.97;100.00
41866;BME280;27539;43.222;27.558;2022-09-01T08:05:24;100206.63;;;27.80;100.00
41866;BME280;27539;43.222;27.558;2022-09-01T08:07:51;100201.31;;;28.14;98.82
41866;BME280;27539;43.222;27.558;2022-09-01T08:10:16;100204.75;;;28.43;99.00
41866;BME280;27539;43.222;27.558;2022-09-01T08:12:42;100202.59;;;28.56;99.24
41866;BME280;27539;43.222;27.558;2022-09-01T08:15:07;100203.97;;;28.85;94.69
41866;BME280;27539;43.222;27.558;2022-09-01T08:17:33;100206.91;;;29.12;98.90
41866;BME280;27539;43.222;27.558;2022-09-01T08:20:00;100198.53;;;28.99;93.42
41866;BME280;27539;43.222;27.558;2022-09-01T08:22:26;100199.97;;;28.90;94.23
41866;BME280;27539;43.222;27.558;2022-09-01T08:24:51;100197.69;;;28.56;95.18
41866;BME280;27539;43.222;27.558;2022-09-01T08:27:17;100196.38;;;29.16;97.72
41866;BME280;27539;43.222;27.558;2022-09-01T08:29:42;100194.44;;;29.23;92.55
41866;BME280;27539;43.222;27.558;2022-09-01T08:32:08;100189.56;;;29.50;96.86
41866;BME280;27539;43.222;27.558;2022-09-01T08:34:34;100189.63;;;29.77;92.28
41866;BME280;27539;43.222;27.558;2022-09-01T08:37:01;100190.47;;;29.55;88.89
41866;BME280;27539;43.222;27.558;2022-09-01T08:39:26;100180.69;;;29.33;88.96
41866;BME280;27539;43.222;27.558;2022-09-01T08:44:19;100175.09;;;29.17;87.88
41866;BME280;27539;43.222;27.558;2022-09-01T08:46:46;100173.09;;;29.44;88.04
41866;BME280;27539;43.222;27.558;2022-09-01T08:49:14;100169.66;;;29.61;85.23
41866;BME280;27539;43.222;27.558;2022-09-01T08:57:09;100166.94;;;29.68;85.49
41866;BME280;27539;43.222;27.558;2022-09-01T08:59:37;100146.84;;;29.95;82.83
41866;BME280;27539;43.222;27.558;2022-09-01T09:07:10;100153.69;;;30.51;83.36
41866;BME280;27539;43.222;27.558;2022-09-01T09:10:02;100148.50;;;29.96;84.10
41866;BME280;27539;43.222;27.558;2022-09-01T09:17:40;100140.97;;;30.48;79.67
41866;BME280;27539;43.222;27.558;2022-09-01T09:20:07;100146.25;;;30.12;79.34
41866;BME280;27539;43.222;27.558;2022-09-01T09:22:33;100149.53;;;30.14;77.57
41866;BME280;27539;43.222;27.558;2022-09-01T09:25:03;100137.84;;;29.97;78.39
41866;BME280;27539;43.222;27.558;2022-09-01T09:27:33;100143.72;;;30.07;78.34
41866;BME280;27539;43.222;27.558;2022-09-01T09:30:04;100138.00;;;30.41;80.07
41866;BME280;27539;43.222;27.558;2022-09-01T09:35:36;100143.47;;;30.53;77.61
41866;BME280;27539;43.222;27.558;2022-09-01T09:43:27;100130.41;;;31.49;75.40
41866;BME280;27539;43.222;27.558;2022-09-01T09:46:39;100121.56;;;31.82;72.76
41866;BME280;27539;43.222;27.558;2022-09-01T09:48:39;100112.13;;;31.85;71.46
41866;BME280;27539;43.222;27.558;2022-09-01T09:51:19;100122.78;;;31.78;69.62
41866;BME280;27539;43.222;27.558;2022-09-01T09:53:44;100123.94;;;31.66;70.00
41866;BME280;27539;43.222;27.558;2022-09-01T09:56:21;100115.31;;;31.70;70.05
41866;BME280;27539;43.222;27.558;2022-09-01T09:58:48;100114.56;;;31.76;70.49
41866;BME280;27539;43.222;27.558;2022-09-01T10:03:46;100116.56;;;30.69;72.69
41866;BME280;27539;43.222;27.558;2022-09-01T10:06:30;100110.88;;;30.76;73.60
41866;BME280;27539;43.222;27.558;2022-09-01T10:08:55;100109.59;;;31.11;72.11
41866;BME280;27539;43.222;27.558;2022-09-01T10:11:25;100103.97;;;31.32;71.85
41866;BME280;27539;43.222;27.558;2022-09-01T10:13:52;100102.53;;;31.56;68.43
41866;BME280;27539;43.222;27.558;2022-09-01T10:16:20;100100.91;;;31.59;70.78
41866;BME280;27539;43.222;27.558;2022-09-01T10:18:47;100096.72;;;31.49;64.15
41866;BME280;27539;43.222;27.558;2022-09-01T10:21:23;100101.66;;;31.52;69.14
41866;BME280;27539;43.222;27.558;2022-09-01T10:23:50;100102.84;;;31.44;68.08
41866;BME280;27539;43.222;27.558;2022-09-01T10:26:28;100103.19;;;31.35;69.80
41866;BME280;27539;43.222;27.558;2022-09-01T10:28:59;100095.91;;;31.49;68.99
41866;BME280;27539;43.222;27.558;2022-09-01T10:31:27;100096.09;;;31.81;69.42
41866;BME280;27539;43.222;27.558;2022-09-01T10:33:53;100097.75;;;31.85;65.20
41866;BME280;27539;43.222;27.558;2022-09-01T10:36:19;100093.56;;;31.72;68.16
41866;BME280;27539;43.222;27.558;2022-09-01T10:38:46;100094.25;;;31.44;69.15
41866;BME280;27539;43.222;27.558;2022-09-01T10:41:42;100086.72;;;31.32;68.12
41866;BME280;27539;43.222;27.558;2022-09-01T10:44:07;100077.72;;;31.37;71.95
41866;BME280;27539;43.222;27.558;2022-09-01T10:48:57;100084.56;;;31.77;70.27
41866;BME280;27539;43.222;27.558;2022-09-01T10:53:52;100072.53;;;32.63;68.00
41866;BME280;27539;43.222;27.558;2022-09-01T10:56:25;100074.59;;;32.69;65.27
41866;BME280;27539;43.222;27.558;2022-09-01T11:04:09;100079.09;;;32.53;64.25
41866;BME280;27539;43.222;27.558;2022-09-01T11:11:45;100064.69;;;32.49;62.70
41866;BME280;27539;43.222;27.558;2022-09-01T11:14:19;100067.50;;;32.20;65.18
41866;BME280;27539;43.222;27.558;2022-09-01T11:17:52;100066.81;;;31.61;65.25
41866;BME280;27539;43.222;27.558;2022-09-01T11:27:04;100062.53;;;31.33;67.21
41866;BME280;27539;43.222;27.558;2022-09-01T11:29:49;100054.22;;;30.69;74.64
41866;BME280;27539;43.222;27.558;2022-09-01T11:32:16;100072.53;;;30.54;81.59
41866;BME280;27539;43.222;27.558;2022-09-01T11:34:42;100065.59;;;30.55;85.58
41866;BME280;27539;43.222;27.558;2022-09-01T11:37:17;100064.88;;;30.69;89.62
41866;BME280;27539;43.222;27.558;2022-09-01T11:39:47;100070.19;;;30.67;89.38
41866;BME280;27539;43.222;27.558;2022-09-01T11:44:49;100066.63;;;30.81;90.38
41866;BME280;27539;43.222;27.558;2022-09-01T11:50:04;100068.47;;;30.21;93.76
41866;BME280;27539;43.222;27.558;2022-09-01T11:52:31;100069.06;;;30.34;94.38
41866;BME280;27539;43.222;27.558;2022-09-01T11:54:59;100069.06;;;30.34;95.84
41866;BME280;27539;43.222;27.558;2022-09-01T11:57:32;100073.59;;;30.35;100.00
41866;BME280;27539;43.222;27.558;2022-09-01T11:59:59;100068.84;;;30.20;100.00
41866;BME280;27539;43.222;27.558;2022-09-01T12:02:29;100067.22;;;30.19;100.00
41866;BME280;27539;43.222;27.558;2022-09-01T12:04:57;100062.28;;;30.15;100.00
41866;BME280;27539;43.222;27.558;2022-09-01T12:09:51;100071.69;;;30.16;100.00
41866;BME280;27539;43.222;27.558;2022-09-01T12:14:55;100070.81;;;29.75;100.00
41866;BME280;27539;43.222;27.558;2022-09-01T12:17:21;100066.41;;;29.84;100.00
41866;BME280;27539;43.222;27.558;2022-09-01T12:19:46;100062.25;;;29.78;100.00
41866;BME280;27539;43.222;27.558;2022-09-01T12:22:13;100070.03;;;29.51;100.00
41866;BME280;27539;43.222;27.558;2022-09-01T12:24:42;100063.69;;;29.65;100.00
41866;BME280;27539;43.222;27.558;2022-09-01T12:27:08;100069.47;;;29.68;100.00
41866;BME280;27539;43.222;27.558;2022-09-01T12:29:33;100067.38;;;29.96;100.00
41866;BME280;27539;43.222;27.558;2022-09-01T12:31:59;100071.91;;;30.34;100.00
41866;BME280;27539;43.222;27.558;2022-09-01T12:34:27;100081.19;;;30.57;100.00
41866;BME280;27539;43.222;27.558;2022-09-01T12:37:04;100085.25;;;30.56;100.00
41866;BME280;27539;43.222;27.558;2022-09-01T12:39:34;100082.56;;;30.33;100.00
41866;BME280;27539;43.222;27.558;2022-09-01T12:42:01;100087.06;;;30.31;100.00
41866;BME280;27539;43.222;27.558;2022-09-01T12:44:42;100096.47;;;30.28;100.00
41866;BME280;27539;43.222;27.558;2022-09-01T12:47:11;100092.38;;;30.29;100.00
41866;BME280;27539;43.222;27.558;2022-09-01T12:49:41;100085.84;;;30.32;100.00
41866;BME280;27539;43.222;27.558;2022-09-01T12:54:43;100093.03;;;30.52;100.00
41866;BME280;27539;43.222;27.558;2022-09-01T12:57:08;100096.81;;;30.60;100.00
41866;BME280;27539;43.222;27.558;2022-09-01T12:59:34;100093.25;;;30.33;100.00
41866;BME280;27539;43.222;27.558;2022-09-01T13:04:44;100083.56;;;30.52;100.00
41866;BME280;27539;43.222;27.558;2022-09-01T13:07:09;100096.47;;;30.28;100.00
41866;BME280;27539;43.222;27.558;2022-09-01T13:09:35;100096.28;;;30.47;100.00
41866;BME280;27539;43.222;27.558;2022-09-01T13:12:17;100115.53;;;30.17;96.71
41866;BME280;27539;43.222;27.558;2022-09-01T13:14:43;100104.03;;;30.13;98.48
41866;BME280;27539;43.222;27.558;2022-09-01T13:17:08;100100.81;;;30.18;99.88
41866;BME280;27539;43.222;27.558;2022-09-01T13:19:34;100106.28;;;30.27;99.57
41866;BME280;27539;43.222;27.558;2022-09-01T13:21:59;100113.78;;;30.39;100.00
41866;BME280;27539;43.222;27.558;2022-09-01T13:24:24;100126.84;;;30.32;100.00
41866;BME280;27539;43.222;27.558;2022-09-01T13:26:50;100143.50;;;30.23;100.00
41866;BME280;27539;43.222;27.558;2022-09-01T13:29:20;100167.34;;;29.44;100.00
41866;BME280;27539;43.222;27.558;2022-09-01T13:31:45;100164.88;;;29.42;100.00
41866;BME280;27539;43.222;27.558;2022-09-01T13:34:10;100150.38;;;29.32;100.00
41866;BME280;27539;43.222;27.558;2022-09-01T13:36:36;100157.88;;;28.48;100.00
41866;BME280;27539;43.222;27.558;2022-09-01T13:39:01;100143.72;;;29.01;100.00
41866;BME280;27539;43.222;27.558;2022-09-01T13:41:26;100145.81;;;28.81;100.00
41866;BME280;27539;43.222;27.558;2022-09-01T13:43:52;100134.53;;;28.92;100.00
41866;BME280;27539;43.222;27.558;2022-09-01T13:46:17;100145.75;;;29.00;100.00
41866;BME280;27539;43.222;27.558;2022-09-01T13:48:42;100150.13;;;28.71;100.00